Terminal Aerodrome Forecast
Issued by NWS

Home | Current Version | Previous Version | Text Only | Print | Product List | Glossary On
Versions: 1 2 3 4 5 6 7 8 9 10 11 12 13 14 15 16 17 18 19 20 21 22 23 24 25 26 27 28 29 30 31 32 33 34 35 36 37 38
000
FTAK31 PANC 250520
TAFADU
TAF
PADU 250520Z 2506/2606 22012KT P6SM VCSH SCT035 BKN045 OVC060
      TEMPO 2506/2510 22012G18KT P6SM -SHRA BKN035 OVC045
     FM251000 19009KT P6SM VCSH BKN020 OVC030
     FM251900 15015KT P6SM VCSH BKN020 OVC030
     FM252300 15015G23KT P6SM -SHRA BKN020=

USA.gov is the U.S. government's official web portal to all federal, state and local government web resources and services.